sensor_id;sensor_type;location;lat;lon;timestamp;P1;durP1;ratioP1;P2;durP2;ratioP2
8675;SDS011;4375;52.486;13.424;2023-07-16T00:01:57;16.70;;;3.70;;
8675;SDS011;4375;52.486;13.424;2023-07-16T00:04:23;17.33;;;3.50;;
8675;SDS011;4375;52.486;13.424;2023-07-16T00:06:49;15.87;;;3.50;;
8675;SDS011;4375;52.486;13.424;2023-07-16T00:09:14;16.60;;;3.33;;
8675;SDS011;4375;52.486;13.424;2023-07-16T00:11:40;15.77;;;3.33;;
8675;SDS011;4375;52.486;13.424;2023-07-16T00:14:06;16.70;;;3.97;;
8675;SDS011;4375;52.486;13.424;2023-07-16T00:16:32;16.30;;;3.43;;
8675;SDS011;4375;52.486;13.424;2023-07-16T00:18:58;16.77;;;4.23;;
8675;SDS011;4375;52.486;13.424;2023-07-16T00:21:24;17.43;;;4.37;;
8675;SDS011;4375;52.486;13.424;2023-07-16T00:23:49;17.60;;;3.60;;
8675;SDS011;4375;52.486;13.424;2023-07-16T00:26:15;21.17;;;4.27;;
8675;SDS011;4375;52.486;13.424;2023-07-16T00:28:41;19.57;;;4.57;;
8675;SDS011;4375;52.486;13.424;2023-07-16T00:31:07;17.57;;;4.40;;
8675;SDS011;4375;52.486;13.424;2023-07-16T00:33:33;16.17;;;4.13;;
8675;SDS011;4375;52.486;13.424;2023-07-16T00:35:58;19.27;;;4.53;;
8675;SDS011;4375;52.486;13.424;2023-07-16T00:38:24;16.30;;;3.83;;
8675;SDS011;4375;52.486;13.424;2023-07-16T00:40:50;17.83;;;4.10;;
8675;SDS011;4375;52.486;13.424;2023-07-16T00:43:15;18.50;;;3.70;;
8675;SDS011;4375;52.486;13.424;2023-07-16T00:45:41;16.80;;;3.87;;
8675;SDS011;4375;52.486;13.424;2023-07-16T00:48:10;16.40;;;4.20;;
8675;SDS011;4375;52.486;13.424;2023-07-16T00:50:36;15.60;;;3.73;;
8675;SDS011;4375;52.486;13.424;2023-07-16T00:53:07;16.87;;;3.77;;
8675;SDS011;4375;52.486;13.424;2023-07-16T00:55:34;15.80;;;3.60;;
8675;SDS011;4375;52.486;13.424;2023-07-16T00:58:02;17.10;;;3.40;;
8675;SDS011;4375;52.486;13.424;2023-07-16T01:00:33;17.10;;;3.90;;
8675;SDS011;4375;52.486;13.424;2023-07-16T01:03:03;17.00;;;3.70;;
8675;SDS011;4375;52.486;13.424;2023-07-16T01:05:31;17.47;;;3.47;;
8675;SDS011;4375;52.486;13.424;2023-07-16T01:08:38;18.50;;;4.73;;
8675;SDS011;4375;52.486;13.424;2023-07-16T01:11:12;18.10;;;4.20;;
8675;SDS011;4375;52.486;13.424;2023-07-16T01:13:38;17.07;;;4.13;;
8675;SDS011;4375;52.486;13.424;2023-07-16T01:16:05;17.10;;;4.47;;
8675;SDS011;4375;52.486;13.424;2023-07-16T01:18:31;17.90;;;4.87;;
8675;SDS011;4375;52.486;13.424;2023-07-16T01:20:57;18.20;;;4.47;;
8675;SDS011;4375;52.486;13.424;2023-07-16T01:23:27;18.30;;;5.27;;
8675;SDS011;4375;52.486;13.424;2023-07-16T01:26:15;16.90;;;4.63;;
8675;SDS011;4375;52.486;13.424;2023-07-16T01:28:53;25.23;;;5.13;;
8675;SDS011;4375;52.486;13.424;2023-07-16T01:31:32;18.10;;;5.10;;
8675;SDS011;4375;52.486;13.424;2023-07-16T01:33:59;17.97;;;5.20;;
8675;SDS011;4375;52.486;13.424;2023-07-16T01:36:25;18.83;;;5.23;;
8675;SDS011;4375;52.486;13.424;2023-07-16T01:38:53;18.73;;;6.40;;
8675;SDS011;4375;52.486;13.424;2023-07-16T01:41:18;19.43;;;5.83;;
8675;SDS011;4375;52.486;13.424;2023-07-16T01:43:44;19.20;;;6.33;;
8675;SDS011;4375;52.486;13.424;2023-07-16T01:46:10;19.47;;;6.57;;
8675;SDS011;4375;52.486;13.424;2023-07-16T01:48:36;20.40;;;6.40;;
8675;SDS011;4375;52.486;13.424;2023-07-16T01:51:03;17.87;;;5.23;;
8675;SDS011;4375;52.486;13.424;2023-07-16T01:53:29;19.80;;;5.60;;
8675;SDS011;4375;52.486;13.424;2023-07-16T01:55:54;19.03;;;5.60;;
8675;SDS011;4375;52.486;13.424;2023-07-16T01:58:20;18.10;;;5.37;;
8675;SDS011;4375;52.486;13.424;2023-07-16T02:00:46;19.23;;;5.27;;
8675;SDS011;4375;52.486;13.424;2023-07-16T02:03:13;17.50;;;4.30;;
8675;SDS011;4375;52.486;13.424;2023-07-16T02:05:39;18.00;;;4.57;;
8675;SDS011;4375;52.486;13.424;2023-07-16T02:08:04;16.07;;;3.90;;
8675;SDS011;4375;52.486;13.424;2023-07-16T02:10:30;21.37;;;4.37;;
8675;SDS011;4375;52.486;13.424;2023-07-16T02:12:56;17.80;;;4.60;;
8675;SDS011;4375;52.486;13.424;2023-07-16T02:15:21;21.20;;;4.70;;
8675;SDS011;4375;52.486;13.424;2023-07-16T02:17:47;18.63;;;4.83;;
8675;SDS011;4375;52.486;13.424;2023-07-16T02:20:13;16.13;;;3.77;;
8675;SDS011;4375;52.486;13.424;2023-07-16T02:22:38;18.10;;;3.87;;
8675;SDS011;4375;52.486;13.424;2023-07-16T02:25:04;16.37;;;3.80;;
8675;SDS011;4375;52.486;13.424;2023-07-16T02:27:31;15.90;;;3.50;;
8675;SDS011;4375;52.486;13.424;2023-07-16T02:29:56;17.57;;;3.70;;
8675;SDS011;4375;52.486;13.424;2023-07-16T02:32:22;18.07;;;3.83;;
8675;SDS011;4375;52.486;13.424;2023-07-16T02:34:48;18.97;;;3.50;;
8675;SDS011;4375;52.486;13.424;2023-07-16T02:37:14;23.00;;;3.77;;
8675;SDS011;4375;52.486;13.424;2023-07-16T02:39:40;18.20;;;4.00;;
8675;SDS011;4375;52.486;13.424;2023-07-16T02:42:07;17.70;;;3.70;;
8675;SDS011;4375;52.486;13.424;2023-07-16T02:44:33;16.70;;;3.60;;
8675;SDS011;4375;52.486;13.424;2023-07-16T02:47:03;18.10;;;3.60;;
8675;SDS011;4375;52.486;13.424;2023-07-16T02:49:29;16.10;;;3.87;;
8675;SDS011;4375;52.486;13.424;2023-07-16T02:51:55;15.60;;;3.20;;
8675;SDS011;4375;52.486;13.424;2023-07-16T02:54:20;17.10;;;3.23;;
8675;SDS011;4375;52.486;13.424;2023-07-16T02:56:46;16.60;;;4.07;;
8675;SDS011;4375;52.486;13.424;2023-07-16T02:59:12;18.13;;;4.60;;
8675;SDS011;4375;52.486;13.424;2023-07-16T03:01:38;24.00;;;3.40;;
8675;SDS011;4375;52.486;13.424;2023-07-16T03:04:03;17.23;;;3.53;;
8675;SDS011;4375;52.486;13.424;2023-07-16T03:06:29;17.40;;;4.20;;
8675;SDS011;4375;52.486;13.424;2023-07-16T03:08:55;17.07;;;4.00;;
8675;SDS011;4375;52.486;13.424;2023-07-16T03:11:20;17.13;;;4.03;;
8675;SDS011;4375;52.486;13.424;2023-07-16T03:13:46;16.10;;;3.30;;
8675;SDS011;4375;52.486;13.424;2023-07-16T03:16:12;16.57;;;4.37;;
8675;SDS011;4375;52.486;13.424;2023-07-16T03:18:37;17.60;;;3.90;;
8675;SDS011;4375;52.486;13.424;2023-07-16T03:21:03;18.80;;;3.80;;
8675;SDS011;4375;52.486;13.424;2023-07-16T03:23:29;18.47;;;3.70;;
8675;SDS011;4375;52.486;13.424;2023-07-16T03:25:54;19.13;;;3.80;;
8675;SDS011;4375;52.486;13.424;2023-07-16T03:28:20;16.20;;;3.07;;
8675;SDS011;4375;52.486;13.424;2023-07-16T03:30:46;16.80;;;3.70;;
8675;SDS011;4375;52.486;13.424;2023-07-16T03:33:13;16.30;;;3.60;;
8675;SDS011;4375;52.486;13.424;2023-07-16T03:35:39;15.17;;;3.00;;
8675;SDS011;4375;52.486;13.424;2023-07-16T03:38:06;15.77;;;3.40;;
8675;SDS011;4375;52.486;13.424;2023-07-16T03:40:32;17.10;;;3.83;;
8675;SDS011;4375;52.486;13.424;2023-07-16T03:42:58;16.57;;;3.60;;
8675;SDS011;4375;52.486;13.424;2023-07-16T03:45:23;16.63;;;3.30;;
8675;SDS011;4375;52.486;13.424;2023-07-16T03:47:49;16.63;;;3.23;;
8675;SDS011;4375;52.486;13.424;2023-07-16T03:50:15;16.13;;;2.83;;
8675;SDS011;4375;52.486;13.424;2023-07-16T03:52:40;16.33;;;2.80;;
8675;SDS011;4375;52.486;13.424;2023-07-16T03:55:06;17.00;;;3.10;;
8675;SDS011;4375;52.486;13.424;2023-07-16T03:57:32;15.40;;;2.93;;
8675;SDS011;4375;52.486;13.424;2023-07-16T03:59:58;17.23;;;3.33;;
8675;SDS011;4375;52.486;13.424;2023-07-16T04:02:24;15.60;;;2.70;;
8675;SDS011;4375;52.486;13.424;2023-07-16T04:04:50;15.80;;;3.20;;
8675;SDS011;4375;52.486;13.424;2023-07-16T04:07:15;19.77;;;2.93;;
8675;SDS011;4375;52.486;13.424;2023-07-16T04:09:42;19.30;;;3.40;;
8675;SDS011;4375;52.486;13.424;2023-07-16T04:12:08;15.50;;;2.80;;
8675;SDS011;4375;52.486;13.424;2023-07-16T04:14:33;15.03;;;2.67;;
8675;SDS011;4375;52.486;13.424;2023-07-16T04:16:59;18.57;;;3.10;;
8675;SDS011;4375;52.486;13.424;2023-07-16T04:19:24;15.90;;;3.27;;
8675;SDS011;4375;52.486;13.424;2023-07-16T04:21:50;16.00;;;3.37;;
8675;SDS011;4375;52.486;13.424;2023-07-16T04:24:16;15.80;;;2.97;;
8675;SDS011;4375;52.486;13.424;2023-07-16T04:26:41;14.90;;;3.10;;
8675;SDS011;4375;52.486;13.424;2023-07-16T04:29:07;16.70;;;3.60;;
8675;SDS011;4375;52.486;13.424;2023-07-16T04:31:32;16.50;;;2.77;;
8675;SDS011;4375;52.486;13.424;2023-07-16T04:33:58;16.67;;;3.20;;
8675;SDS011;4375;52.486;13.424;2023-07-16T04:36:24;16.23;;;3.37;;
8675;SDS011;4375;52.486;13.424;2023-07-16T04:38:50;16.33;;;4.10;;
8675;SDS011;4375;52.486;13.424;2023-07-16T04:41:16;16.60;;;3.67;;
8675;SDS011;4375;52.486;13.424;2023-07-16T04:43:42;16.90;;;3.30;;
8675;SDS011;4375;52.486;13.424;2023-07-16T04:46:08;19.63;;;4.03;;
8675;SDS011;4375;52.486;13.424;2023-07-16T04:48:33;16.83;;;3.73;;
8675;SDS011;4375;52.486;13.424;2023-07-16T04:50:59;16.30;;;3.83;;
8675;SDS011;4375;52.486;13.424;2023-07-16T04:53:24;16.67;;;4.20;;
8675;SDS011;4375;52.486;13.424;2023-07-16T04:55:50;17.03;;;3.90;;
8675;SDS011;4375;52.486;13.424;2023-07-16T04:58:16;17.37;;;4.40;;
8675;SDS011;4375;52.486;13.424;2023-07-16T05:00:41;16.70;;;3.83;;
8675;SDS011;4375;52.486;13.424;2023-07-16T05:03:07;16.40;;;4.10;;
8675;SDS011;4375;52.486;13.424;2023-07-16T05:05:33;16.87;;;4.07;;
8675;SDS011;4375;52.486;13.424;2023-07-16T05:07:59;16.60;;;3.70;;
8675;SDS011;4375;52.486;13.424;2023-07-16T05:10:26;16.20;;;3.67;;
8675;SDS011;4375;52.486;13.424;2023-07-16T05:12:52;19.30;;;4.13;;
8675;SDS011;4375;52.486;13.424;2023-07-16T05:15:18;19.53;;;3.93;;
8675;SDS011;4375;52.486;13.424;2023-07-16T05:17:43;16.03;;;4.00;;
8675;SDS011;4375;52.486;13.424;2023-07-16T05:20:09;17.93;;;3.43;;
8675;SDS011;4375;52.486;13.424;2023-07-16T05:22:35;16.20;;;3.87;;
8675;SDS011;4375;52.486;13.424;2023-07-16T05:25:01;16.80;;;4.13;;
8675;SDS011;4375;52.486;13.424;2023-07-16T05:27:27;16.83;;;4.13;;
8675;SDS011;4375;52.486;13.424;2023-07-16T05:29:53;16.23;;;3.97;;
8675;SDS011;4375;52.486;13.424;2023-07-16T05:32:19;17.13;;;3.90;;
8675;SDS011;4375;52.486;13.424;2023-07-16T05:34:44;16.30;;;3.37;;
8675;SDS011;4375;52.486;13.424;2023-07-16T05:37:10;16.57;;;3.67;;
8675;SDS011;4375;52.486;13.424;2023-07-16T05:39:36;17.90;;;3.83;;
8675;SDS011;4375;52.486;13.424;2023-07-16T05:42:03;15.30;;;3.20;;
8675;SDS011;4375;52.486;13.424;2023-07-16T05:44:29;16.93;;;4.07;;
8675;SDS011;4375;52.486;13.424;2023-07-16T05:46:54;15.77;;;3.20;;
8675;SDS011;4375;52.486;13.424;2023-07-16T05:49:20;15.50;;;3.73;;
8675;SDS011;4375;52.486;13.424;2023-07-16T05:51:46;16.17;;;3.47;;
8675;SDS011;4375;52.486;13.424;2023-07-16T05:54:11;15.90;;;3.40;;
8675;SDS011;4375;52.486;13.424;2023-07-16T05:56:37;15.40;;;3.30;;
8675;SDS011;4375;52.486;13.424;2023-07-16T05:59:02;15.50;;;3.23;;
8675;SDS011;4375;52.486;13.424;2023-07-16T06:01:28;16.90;;;3.67;;
8675;SDS011;4375;52.486;13.424;2023-07-16T06:03:54;19.20;;;3.93;;
8675;SDS011;4375;52.486;13.424;2023-07-16T06:06:19;16.33;;;3.90;;
8675;SDS011;4375;52.486;13.424;2023-07-16T06:08:48;15.67;;;3.60;;
8675;SDS011;4375;52.486;13.424;2023-07-16T06:11:14;16.97;;;3.70;;
8675;SDS011;4375;52.486;13.424;2023-07-16T06:13:40;15.73;;;3.73;;
8675;SDS011;4375;52.486;13.424;2023-07-16T06:16:05;18.47;;;4.07;;
8675;SDS011;4375;52.486;13.424;2023-07-16T06:18:31;16.97;;;3.77;;
8675;SDS011;4375;52.486;13.424;2023-07-16T06:20:57;17.20;;;3.53;;
8675;SDS011;4375;52.486;13.424;2023-07-16T06:23:22;19.00;;;3.80;;
8675;SDS011;4375;52.486;13.424;2023-07-16T06:25:48;17.30;;;3.90;;
8675;SDS011;4375;52.486;13.424;2023-07-16T06:28:18;17.80;;;4.07;;
8675;SDS011;4375;52.486;13.424;2023-07-16T06:30:44;17.40;;;3.73;;
8675;SDS011;4375;52.486;13.424;2023-07-16T06:33:09;17.10;;;4.10;;
8675;SDS011;4375;52.486;13.424;2023-07-16T06:35:35;20.53;;;4.60;;
8675;SDS011;4375;52.486;13.424;2023-07-16T06:38:01;16.90;;;3.27;;
8675;SDS011;4375;52.486;13.424;2023-07-16T06:40:28;15.90;;;3.50;;
8675;SDS011;4375;52.486;13.424;2023-07-16T06:42:53;20.37;;;3.70;;
8675;SDS011;4375;52.486;13.424;2023-07-16T06:45:19;16.00;;;3.63;;
8675;SDS011;4375;52.486;13.424;2023-07-16T06:47:45;16.90;;;3.20;;
8675;SDS011;4375;52.486;13.424;2023-07-16T06:50:11;16.57;;;3.57;;
8675;SDS011;4375;52.486;13.424;2023-07-16T06:52:36;16.93;;;3.40;;
8675;SDS011;4375;52.486;13.424;2023-07-16T06:55:02;15.60;;;3.93;;
8675;SDS011;4375;52.486;13.424;2023-07-16T06:57:28;18.10;;;3.30;;
8675;SDS011;4375;52.486;13.424;2023-07-16T06:59:54;18.00;;;3.83;;
8675;SDS011;4375;52.486;13.424;2023-07-16T07:02:19;15.83;;;3.60;;
8675;SDS011;4375;52.486;13.424;2023-07-16T07:04:45;15.07;;;3.13;;
8675;SDS011;4375;52.486;13.424;2023-07-16T07:07:14;17.30;;;3.80;;
8675;SDS011;4375;52.486;13.424;2023-07-16T07:09:47;15.37;;;3.30;;
8675;SDS011;4375;52.486;13.424;2023-07-16T07:12:13;15.40;;;3.10;;
8675;SDS011;4375;52.486;13.424;2023-07-16T07:14:39;19.07;;;4.50;;
8675;SDS011;4375;52.486;13.424;2023-07-16T07:17:05;17.30;;;3.73;;
8675;SDS011;4375;52.486;13.424;2023-07-16T07:19:30;17.03;;;3.17;;
8675;SDS011;4375;52.486;13.424;2023-07-16T07:21:57;16.47;;;3.63;;
8675;SDS011;4375;52.486;13.424;2023-07-16T07:24:25;17.63;;;2.83;;
8675;SDS011;4375;52.486;13.424;2023-07-16T07:26:51;16.33;;;3.80;;
8675;SDS011;4375;52.486;13.424;2023-07-16T07:29:16;18.07;;;3.50;;
8675;SDS011;4375;52.486;13.424;2023-07-16T07:31:50;15.83;;;3.13;;
8675;SDS011;4375;52.486;13.424;2023-07-16T07:34:15;17.47;;;3.10;;
8675;SDS011;4375;52.486;13.424;2023-07-16T07:36:41;16.87;;;3.53;;
8675;SDS011;4375;52.486;13.424;2023-07-16T07:39:07;16.90;;;3.50;;
8675;SDS011;4375;52.486;13.424;2023-07-16T07:41:33;16.63;;;3.30;;
8675;SDS011;4375;52.486;13.424;2023-07-16T07:43:58;17.53;;;3.43;;
8675;SDS011;4375;52.486;13.424;2023-07-16T07:46:24;17.53;;;3.40;;
8675;SDS011;4375;52.486;13.424;2023-07-16T07:48:50;16.93;;;2.80;;
8675;SDS011;4375;52.486;13.424;2023-07-16T07:51:15;16.17;;;2.90;;
8675;SDS011;4375;52.486;13.424;2023-07-16T07:53:41;16.13;;;3.00;;
8675;SDS011;4375;52.486;13.424;2023-07-16T07:56:07;16.30;;;2.70;;
8675;SDS011;4375;52.486;13.424;2023-07-16T07:58:32;16.60;;;2.93;;
8675;SDS011;4375;52.486;13.424;2023-07-16T08:01:07;15.80;;;3.20;;
8675;SDS011;4375;52.486;13.424;2023-07-16T08:03:36;19.27;;;3.27;;
8675;SDS011;4375;52.486;13.424;2023-07-16T08:06:02;15.87;;;3.07;;
8675;SDS011;4375;52.486;13.424;2023-07-16T08:08:28;16.43;;;3.27;;
8675;SDS011;4375;52.486;13.424;2023-07-16T08:10:54;15.80;;;3.03;;
8675;SDS011;4375;52.486;13.424;2023-07-16T08:13:20;16.87;;;3.23;;
8675;SDS011;4375;52.486;13.424;2023-07-16T08:15:46;15.40;;;2.80;;
8675;SDS011;4375;52.486;13.424;2023-07-16T08:18:13;16.57;;;2.87;;
8675;SDS011;4375;52.486;13.424;2023-07-16T08:20:38;15.00;;;2.70;;
8675;SDS011;4375;52.486;13.424;2023-07-16T08:23:06;16.87;;;2.57;;
8675;SDS011;4375;52.486;13.424;2023-07-16T08:25:31;15.67;;;2.30;;
8675;SDS011;4375;52.486;13.424;2023-07-16T08:27:57;15.60;;;2.77;;
8675;SDS011;4375;52.486;13.424;2023-07-16T08:30:23;14.90;;;2.20;;
8675;SDS011;4375;52.486;13.424;2023-07-16T08:32:48;15.50;;;2.60;;
8675;SDS011;4375;52.486;13.424;2023-07-16T08:35:15;15.37;;;2.03;;
8675;SDS011;4375;52.486;13.424;2023-07-16T08:37:44;17.03;;;2.57;;
8675;SDS011;4375;52.486;13.424;2023-07-16T08:40:10;16.83;;;2.10;;
8675;SDS011;4375;52.486;13.424;2023-07-16T08:42:37;14.73;;;2.30;;
8675;SDS011;4375;52.486;13.424;2023-07-16T08:45:08;21.33;;;2.20;;
8675;SDS011;4375;52.486;13.424;2023-07-16T08:47:35;14.60;;;2.20;;
8675;SDS011;4375;52.486;13.424;2023-07-16T08:50:01;14.47;;;2.10;;
8675;SDS011;4375;52.486;13.424;2023-07-16T08:52:27;14.13;;;2.00;;
8675;SDS011;4375;52.486;13.424;2023-07-16T08:54:54;17.60;;;2.60;;
8675;SDS011;4375;52.486;13.424;2023-07-16T08:57:20;14.20;;;1.90;;
8675;SDS011;4375;52.486;13.424;2023-07-16T08:59:49;14.57;;;2.30;;
8675;SDS011;4375;52.486;13.424;2023-07-16T09:02:19;14.50;;;2.00;;
8675;SDS011;4375;52.486;13.424;2023-07-16T09:04:48;14.30;;;2.10;;
8675;SDS011;4375;52.486;13.424;2023-07-16T09:07:16;14.27;;;2.20;;
8675;SDS011;4375;52.486;13.424;2023-07-16T09:09:42;13.40;;;1.83;;
8675;SDS011;4375;52.486;13.424;2023-07-16T09:12:11;14.27;;;2.10;;
8675;SDS011;4375;52.486;13.424;2023-07-16T09:14:37;14.52;;;1.85;;
8675;SDS011;4375;52.486;13.424;2023-07-16T09:17:03;15.07;;;2.00;;
8675;SDS011;4375;52.486;13.424;2023-07-16T09:19:31;15.27;;;2.15;;
8675;SDS011;4375;52.486;13.424;2023-07-16T09:21:58;14.95;;;2.10;;
8675;SDS011;4375;52.486;13.424;2023-07-16T09:24:23;16.60;;;1.88;;
8675;SDS011;4375;52.486;13.424;2023-07-16T09:26:49;16.00;;;2.55;;
8675;SDS011;4375;52.486;13.424;2023-07-16T09:29:16;14.20;;;2.20;;
8675;SDS011;4375;52.486;13.424;2023-07-16T09:34:37;15.15;;;2.10;;
8675;SDS011;4375;52.486;13.424;2023-07-16T09:37:03;15.20;;;2.30;;
8675;SDS011;4375;52.486;13.424;2023-07-16T09:39:30;14.37;;;2.03;;
8675;SDS011;4375;52.486;13.424;2023-07-16T09:41:57;15.67;;;2.40;;
8675;SDS011;4375;52.486;13.424;2023-07-16T09:44:23;16.60;;;2.70;;
8675;SDS011;4375;52.486;13.424;2023-07-16T09:46:49;14.30;;;1.93;;
8675;SDS011;4375;52.486;13.424;2023-07-16T09:49:15;14.43;;;2.20;;
8675;SDS011;4375;52.486;13.424;2023-07-16T09:51:41;17.33;;;2.50;;
8675;SDS011;4375;52.486;13.424;2023-07-16T09:54:07;14.30;;;2.13;;
8675;SDS011;4375;52.486;13.424;2023-07-16T09:56:44;17.00;;;2.50;;
8675;SDS011;4375;52.486;13.424;2023-07-16T09:59:13;13.70;;;1.93;;
8675;SDS011;4375;52.486;13.424;2023-07-16T10:01:43;18.93;;;2.20;;
8675;SDS011;4375;52.486;13.424;2023-07-16T10:04:11;15.30;;;2.40;;
8675;SDS011;4375;52.486;13.424;2023-07-16T10:06:37;14.30;;;1.90;;
8675;SDS011;4375;52.486;13.424;2023-07-16T10:09:13;16.37;;;2.57;;
8675;SDS011;4375;52.486;13.424;2023-07-16T10:11:38;14.40;;;2.13;;
8675;SDS011;4375;52.486;13.424;2023-07-16T10:14:07;16.30;;;2.60;;
8675;SDS011;4375;52.486;13.424;2023-07-16T10:16:37;15.43;;;2.23;;
8675;SDS011;4375;52.486;13.424;2023-07-16T10:19:05;16.87;;;2.90;;
8675;SDS011;4375;52.486;13.424;2023-07-16T10:21:36;16.57;;;2.70;;
8675;SDS011;4375;52.486;13.424;2023-07-16T10:24:04;17.53;;;2.50;;
8675;SDS011;4375;52.486;13.424;2023-07-16T10:26:30;14.90;;;2.30;;
8675;SDS011;4375;52.486;13.424;2023-07-16T10:28:56;15.27;;;2.33;;
8675;SDS011;4375;52.486;13.424;2023-07-16T10:31:22;15.20;;;2.30;;
8675;SDS011;4375;52.486;13.424;2023-07-16T10:36:26;15.80;;;2.80;;
8675;SDS011;4375;52.486;13.424;2023-07-16T10:38:52;15.23;;;2.73;;
8675;SDS011;4375;52.486;13.424;2023-07-16T10:41:18;16.00;;;2.37;;
8675;SDS011;4375;52.486;13.424;2023-07-16T10:43:43;15.87;;;2.53;;
8675;SDS011;4375;52.486;13.424;2023-07-16T10:46:10;15.93;;;2.70;;
8675;SDS011;4375;52.486;13.424;2023-07-16T10:48:35;15.67;;;2.73;;
8675;SDS011;4375;52.486;13.424;2023-07-16T10:51:01;18.37;;;2.80;;
8675;SDS011;4375;52.486;13.424;2023-07-16T10:53:27;15.10;;;2.57;;
8675;SDS011;4375;52.486;13.424;2023-07-16T10:55:53;15.47;;;2.80;;
8675;SDS011;4375;52.486;13.424;2023-07-16T10:58:19;17.97;;;3.13;;
8675;SDS011;4375;52.486;13.424;2023-07-16T11:00:45;16.83;;;3.00;;
8675;SDS011;4375;52.486;13.424;2023-07-16T11:03:10;16.93;;;2.80;;
8675;SDS011;4375;52.486;13.424;2023-07-16T11:05:41;14.93;;;2.50;;
8675;SDS011;4375;52.486;13.424;2023-07-16T11:08:10;18.00;;;3.50;;
8675;SDS011;4375;52.486;13.424;2023-07-16T11:10:35;14.30;;;2.43;;
8675;SDS011;4375;52.486;13.424;2023-07-16T11:13:01;16.37;;;2.87;;
8675;SDS011;4375;52.486;13.424;2023-07-16T11:15:33;17.57;;;2.87;;
8675;SDS011;4375;52.486;13.424;2023-07-16T11:17:59;21.27;;;2.80;;
8675;SDS011;4375;52.486;13.424;2023-07-16T11:20:29;17.57;;;2.83;;
8675;SDS011;4375;52.486;13.424;2023-07-16T11:22:57;15.30;;;2.80;;
8675;SDS011;4375;52.486;13.424;2023-07-16T11:25:23;16.83;;;3.00;;
8675;SDS011;4375;52.486;13.424;2023-07-16T11:27:49;16.80;;;3.20;;
8675;SDS011;4375;52.486;13.424;2023-07-16T11:30:22;17.23;;;2.93;;
8675;SDS011;4375;52.486;13.424;2023-07-16T11:32:49;14.63;;;2.50;;
8675;SDS011;4375;52.486;13.424;2023-07-16T11:35:15;16.93;;;2.90;;
8675;SDS011;4375;52.486;13.424;2023-07-16T11:37:42;16.07;;;2.63;;
8675;SDS011;4375;52.486;13.424;2023-07-16T11:40:09;15.10;;;2.80;;
8675;SDS011;4375;52.486;13.424;2023-07-16T11:42:39;21.70;;;3.00;;
8675;SDS011;4375;52.486;13.424;2023-07-16T11:45:14;16.20;;;3.00;;
8675;SDS011;4375;52.486;13.424;2023-07-16T11:47:42;15.80;;;2.70;;
8675;SDS011;4375;52.486;13.424;2023-07-16T11:50:08;16.90;;;2.67;;
8675;SDS011;4375;52.486;13.424;2023-07-16T11:52:34;21.70;;;2.73;;
8675;SDS011;4375;52.486;13.424;2023-07-16T11:55:00;18.43;;;2.50;;
8675;SDS011;4375;52.486;13.424;2023-07-16T11:57:25;16.63;;;2.47;;
8675;SDS011;4375;52.486;13.424;2023-07-16T11:59:52;15.60;;;2.70;;
8675;SDS011;4375;52.486;13.424;2023-07-16T12:02:17;16.50;;;2.67;;
8675;SDS011;4375;52.486;13.424;2023-07-16T12:04:43;17.60;;;2.83;;
8675;SDS011;4375;52.486;13.424;2023-07-16T12:07:09;18.00;;;2.77;;
8675;SDS011;4375;52.486;13.424;2023-07-16T12:09:34;14.97;;;2.00;;
8675;SDS011;4375;52.486;13.424;2023-07-16T12:12:00;17.30;;;2.90;;
8675;SDS011;4375;52.486;13.424;2023-07-16T12:14:26;16.47;;;2.33;;
8675;SDS011;4375;52.486;13.424;2023-07-16T12:16:52;16.00;;;2.50;;
8675;SDS011;4375;52.486;13.424;2023-07-16T12:19:17;15.67;;;2.40;;
8675;SDS011;4375;52.486;13.424;2023-07-16T12:21:43;14.80;;;2.30;;
8675;SDS011;4375;52.486;13.424;2023-07-16T12:24:09;19.27;;;2.87;;
8675;SDS011;4375;52.486;13.424;2023-07-16T12:26:35;16.17;;;3.07;;
8675;SDS011;4375;52.486;13.424;2023-07-16T12:29:00;16.50;;;2.57;;
8675;SDS011;4375;52.486;13.424;2023-07-16T12:31:30;17.83;;;2.40;;
8675;SDS011;4375;52.486;13.424;2023-07-16T12:33:59;15.57;;;2.30;;
8675;SDS011;4375;52.486;13.424;2023-07-16T12:36:27;16.30;;;2.47;;
8675;SDS011;4375;52.486;13.424;2023-07-16T12:38:53;15.47;;;2.30;;
8675;SDS011;4375;52.486;13.424;2023-07-16T12:41:19;18.60;;;2.60;;
8675;SDS011;4375;52.486;13.424;2023-07-16T12:43:46;18.40;;;2.50;;
8675;SDS011;4375;52.486;13.424;2023-07-16T12:46:11;15.77;;;2.20;;
8675;SDS011;4375;52.486;13.424;2023-07-16T12:48:37;15.60;;;2.63;;
8675;SDS011;4375;52.486;13.424;2023-07-16T12:51:03;15.83;;;2.43;;
8675;SDS011;4375;52.486;13.424;2023-07-16T12:53:28;15.70;;;2.30;;
8675;SDS011;4375;52.486;13.424;2023-07-16T12:55:54;15.70;;;2.20;;
8675;SDS011;4375;52.486;13.424;2023-07-16T12:58:20;16.00;;;2.57;;
8675;SDS011;4375;52.486;13.424;2023-07-16T13:00:45;16.33;;;2.57;;
8675;SDS011;4375;52.486;13.424;2023-07-16T13:03:11;15.50;;;2.60;;
8675;SDS011;4375;52.486;13.424;2023-07-16T13:05:39;17.53;;;2.73;;
8675;SDS011;4375;52.486;13.424;2023-07-16T13:08:09;15.90;;;2.27;;
8675;SDS011;4375;52.486;13.424;2023-07-16T13:10:35;16.53;;;2.47;;
8675;SDS011;4375;52.486;13.424;2023-07-16T13:13:01;15.17;;;2.37;;
8675;SDS011;4375;52.486;13.424;2023-07-16T13:15:28;17.07;;;2.53;;
8675;SDS011;4375;52.486;13.424;2023-07-16T13:17:54;15.40;;;2.10;;
8675;SDS011;4375;52.486;13.424;2023-07-16T13:20:20;15.90;;;2.63;;
8675;SDS011;4375;52.486;13.424;2023-07-16T13:22:47;22.53;;;3.20;;
8675;SDS011;4375;52.486;13.424;2023-07-16T13:25:13;16.07;;;2.43;;
8675;SDS011;4375;52.486;13.424;2023-07-16T13:27:38;16.70;;;2.50;;
8675;SDS011;4375;52.486;13.424;2023-07-16T13:30:04;15.57;;;2.57;;
8675;SDS011;4375;52.486;13.424;2023-07-16T13:32:31;17.47;;;2.40;;
8675;SDS011;4375;52.486;13.424;2023-07-16T13:34:56;15.83;;;1.90;;
8675;SDS011;4375;52.486;13.424;2023-07-16T13:37:22;17.53;;;2.73;;
8675;SDS011;4375;52.486;13.424;2023-07-16T13:39:48;16.60;;;2.40;;
8675;SDS011;4375;52.486;13.424;2023-07-16T13:42:13;16.27;;;2.20;;
8675;SDS011;4375;52.486;13.424;2023-07-16T13:44:39;15.30;;;2.33;;
8675;SDS011;4375;52.486;13.424;2023-07-16T13:47:04;15.27;;;2.20;;
8675;SDS011;4375;52.486;13.424;2023-07-16T13:49:30;15.67;;;2.43;;
8675;SDS011;4375;52.486;13.424;2023-07-16T13:51:55;15.87;;;2.50;;
8675;SDS011;4375;52.486;13.424;2023-07-16T13:54:21;15.10;;;2.00;;
8675;SDS011;4375;52.486;13.424;2023-07-16T13:56:47;18.43;;;2.17;;
8675;SDS011;4375;52.486;13.424;2023-07-16T13:59:13;17.10;;;2.43;;
8675;SDS011;4375;52.486;13.424;2023-07-16T14:01:39;14.67;;;2.17;;
8675;SDS011;4375;52.486;13.424;2023-07-16T14:04:05;18.40;;;2.37;;
8675;SDS011;4375;52.486;13.424;2023-07-16T14:06:31;16.40;;;2.27;;
8675;SDS011;4375;52.486;13.424;2023-07-16T14:08:57;14.87;;;2.00;;
8675;SDS011;4375;52.486;13.424;2023-07-16T14:11:23;15.53;;;2.10;;
8675;SDS011;4375;52.486;13.424;2023-07-16T14:13:49;14.97;;;2.60;;
8675;SDS011;4375;52.486;13.424;2023-07-16T14:16:16;16.77;;;2.40;;
8675;SDS011;4375;52.486;13.424;2023-07-16T14:18:42;16.50;;;2.20;;
8675;SDS011;4375;52.486;13.424;2023-07-16T14:21:08;15.87;;;2.30;;
8675;SDS011;4375;52.486;13.424;2023-07-16T14:23:35;15.60;;;2.37;;
8675;SDS011;4375;52.486;13.424;2023-07-16T14:26:01;17.17;;;2.43;;
8675;SDS011;4375;52.486;13.424;2023-07-16T14:28:28;16.40;;;2.00;;
8675;SDS011;4375;52.486;13.424;2023-07-16T14:30:53;14.57;;;1.93;;
8675;SDS011;4375;52.486;13.424;2023-07-16T14:33:19;15.77;;;2.67;;
8675;SDS011;4375;52.486;13.424;2023-07-16T14:35:45;15.53;;;2.03;;
8675;SDS011;4375;52.486;13.424;2023-07-16T14:38:11;14.77;;;2.23;;
8675;SDS011;4375;52.486;13.424;2023-07-16T14:40:36;15.37;;;3.03;;
8675;SDS011;4375;52.486;13.424;2023-07-16T14:43:04;15.60;;;2.30;;
8675;SDS011;4375;52.486;13.424;2023-07-16T14:45:31;17.97;;;1.93;;
8675;SDS011;4375;52.486;13.424;2023-07-16T14:47:58;15.50;;;2.10;;
8675;SDS011;4375;52.486;13.424;2023-07-16T14:50:23;16.97;;;2.07;;